createdAt,value
2023-09-04T00:00:28.430Z,92.70
2023-09-04T00:03:28.303Z,91.60
2023-09-04T00:06:26.498Z,92.10
2023-09-04T00:09:24.473Z,92.40
2023-09-04T00:12:22.440Z,92.10
2023-09-04T00:15:20.516Z,92.70
2023-09-04T00:18:18.605Z,93.00
2023-09-04T00:21:17.301Z,92.70
2023-09-04T00:24:15.239Z,91.00
2023-09-04T00:27:13.059Z,90.20
2023-09-04T00:30:11.610Z,89.70
2023-09-04T00:33:09.490Z,88.10
2023-09-04T00:36:07.514Z,88.00
2023-09-04T00:39:05.537Z,88.90
2023-09-04T00:42:03.458Z,85.30
2023-09-04T00:45:02.520Z,86.10
2023-09-04T00:48:00.727Z,85.10
2023-09-04T00:51:00.440Z,84.70
2023-09-04T00:53:58.708Z,85.30
2023-09-04T00:56:56.810Z,88.10
2023-09-04T00:59:55.016Z,90.70
2023-09-04T01:02:53.249Z,90.10
2023-09-04T01:05:51.387Z,89.00
2023-09-04T01:08:49.356Z,88.90
2023-09-04T01:11:55.561Z,88.50
2023-09-04T01:14:57.607Z,86.20
2023-09-04T01:17:55.730Z,85.10
2023-09-04T01:21:02.490Z,85.70
2023-09-04T01:24:00.599Z,87.10
2023-09-04T01:27:32.847Z,86.10
2023-09-04T01:30:46.644Z,86.50
2023-09-04T01:33:51.612Z,89.00
2023-09-04T01:36:52.187Z,88.20
2023-09-04T01:39:51.176Z,88.30
2023-09-04T01:42:49.503Z,89.20
2023-09-04T01:45:47.383Z,90.50
2023-09-04T01:48:45.345Z,88.70
2023-09-04T01:51:43.227Z,89.50
2023-09-04T01:54:41.145Z,88.10
2023-09-04T01:57:39.070Z,89.30
2023-09-04T02:00:37.142Z,90.00
2023-09-04T02:03:35.286Z,88.80
2023-09-04T02:06:33.655Z,88.30
2023-09-04T02:09:31.647Z,89.40
2023-09-04T02:12:29.573Z,88.10
2023-09-04T02:15:27.487Z,87.40
2023-09-04T02:18:25.686Z,87.80
2023-09-04T02:21:23.724Z,89.10
2023-09-04T02:24:22.618Z,88.30
2023-09-04T02:27:20.414Z,88.70
2023-09-04T02:30:18.750Z,88.90
2023-09-04T02:33:17.078Z,89.10
2023-09-04T02:36:15.170Z,89.10
2023-09-04T02:39:12.930Z,88.70
2023-09-04T02:42:11.391Z,89.90
2023-09-04T02:45:10.636Z,89.80
2023-09-04T02:48:08.975Z,89.60
2023-09-04T02:51:06.888Z,89.00
2023-09-04T02:54:04.899Z,88.50
2023-09-04T02:57:02.689Z,88.40
2023-09-04T03:00:02.547Z,88.30
2023-09-04T03:03:00.422Z,86.00
2023-09-04T03:05:58.396Z,88.10
2023-09-04T03:08:56.225Z,88.60
2023-09-04T03:11:57.266Z,83.00
2023-09-04T03:14:57.913Z,84.30
2023-09-04T03:17:55.949Z,81.80
2023-09-04T03:20:54.540Z,81.80
2023-09-04T03:23:52.925Z,80.30
2023-09-04T03:26:51.403Z,78.30
2023-09-04T03:29:49.328Z,82.30
2023-09-04T03:32:47.180Z,78.80
2023-09-04T03:35:45.514Z,77.90
2023-09-04T03:38:43.436Z,78.20
2023-09-04T03:41:41.404Z,81.80
2023-09-04T03:44:39.232Z,84.60
2023-09-04T03:47:37.089Z,79.40
2023-09-04T03:50:37.390Z,78.80
2023-09-04T03:53:35.322Z,78.50
2023-09-04T03:56:33.656Z,78.70
2023-09-04T03:59:31.559Z,77.30
2023-09-04T04:02:29.501Z,78.20
2023-09-04T04:05:27.391Z,78.20
2023-09-04T04:08:26.178Z,79.40
2023-09-04T04:11:24.438Z,79.70
2023-09-04T04:14:22.240Z,79.30
2023-09-04T04:17:20.120Z,88.20
2023-09-04T04:20:19.165Z,78.30
2023-09-04T04:23:17.084Z,80.40
2023-09-04T04:26:14.921Z,79.50
2023-09-04T04:29:12.910Z,78.90
2023-09-04T04:32:10.722Z,81.30
2023-09-04T04:35:10.094Z,80.60
2023-09-04T04:38:11.371Z,82.40
2023-09-04T04:41:09.721Z,80.00
2023-09-04T04:44:07.721Z,81.30
2023-09-04T04:47:05.808Z,84.90
2023-09-04T04:50:04.151Z,82.00
2023-09-04T04:53:02.052Z,82.20
2023-09-04T04:56:01.902Z,81.30
2023-09-04T04:58:59.803Z,81.20
2023-09-04T05:01:59.821Z,80.20
2023-09-04T05:04:58.209Z,81.00
2023-09-04T05:07:55.965Z,80.70
2023-09-04T05:11:04.681Z,86.50
2023-09-04T05:14:02.420Z,79.90
2023-09-04T05:17:00.396Z,82.00
2023-09-04T05:19:58.172Z,82.70
2023-09-04T05:22:56.072Z,82.60
2023-09-04T05:25:55.100Z,88.60
2023-09-04T05:28:52.961Z,83.90
2023-09-04T05:31:54.192Z,78.20
2023-09-04T05:34:55.571Z,80.40
2023-09-04T05:37:53.350Z,79.90
2023-09-04T05:40:56.842Z,81.60
2023-09-04T05:43:54.644Z,79.20
2023-09-04T05:46:54.241Z,87.70
2023-09-04T05:49:52.016Z,81.10
2023-09-04T05:52:49.875Z,77.90
2023-09-04T05:56:04.297Z,76.70
2023-09-04T05:59:02.567Z,77.90
2023-09-04T06:02:00.342Z,76.50
2023-09-04T06:04:58.236Z,76.00
2023-09-04T06:07:57.931Z,74.80
2023-09-04T06:10:56.820Z,87.80
2023-09-04T06:13:54.616Z,76.00
2023-09-04T06:16:52.667Z,75.10
2023-09-04T06:19:50.491Z,76.00
2023-09-04T06:22:48.355Z,77.30
2023-09-04T06:25:47.713Z,77.10
2023-09-04T06:28:45.611Z,77.70
2023-09-04T06:31:43.481Z,76.20
2023-09-04T06:34:41.375Z,75.90
2023-09-04T06:37:39.151Z,76.20
2023-09-04T06:40:39.040Z,76.80
2023-09-04T06:43:38.640Z,76.40
2023-09-04T06:46:36.578Z,77.60
2023-09-04T06:49:34.499Z,76.20
2023-09-04T06:52:32.403Z,76.80
2023-09-04T06:55:30.633Z,78.30
2023-09-04T06:58:28.701Z,80.00
2023-09-04T07:01:26.608Z,78.00
2023-09-04T07:04:24.794Z,78.80
2023-09-04T07:07:22.584Z,78.30
2023-09-04T07:10:20.581Z,80.00
2023-09-04T07:13:20.092Z,79.20
2023-09-04T07:16:31.292Z,81.70
2023-09-04T07:19:35.919Z,84.20
2023-09-04T07:22:33.827Z,80.50
2023-09-04T07:25:32.822Z,79.30
2023-09-04T07:28:30.743Z,80.90
2023-09-04T07:31:30.229Z,79.70
2023-09-04T07:34:28.229Z,82.10
2023-09-04T07:37:28.532Z,81.40
2023-09-04T07:40:26.501Z,81.20
2023-09-04T07:43:24.733Z,82.50
2023-09-04T07:46:23.538Z,83.60
2023-09-04T07:49:21.322Z,82.90
2023-09-04T07:52:19.192Z,85.20
2023-09-04T07:55:17.090Z,86.80
2023-09-04T07:58:15.367Z,86.10
2023-09-04T08:01:15.437Z,86.50
2023-09-04T08:04:15.253Z,88.10
2023-09-04T08:07:13.054Z,88.40
2023-09-04T08:10:11.348Z,88.90
2023-09-04T08:13:15.961Z,89.70
2023-09-04T08:16:13.902Z,87.10
2023-09-04T08:19:11.739Z,89.40
2023-09-04T08:22:09.601Z,88.80
2023-09-04T08:25:07.841Z,90.30
2023-09-04T08:28:06.489Z,92.20
2023-09-04T08:31:05.335Z,93.60
2023-09-04T08:34:04.679Z,94.90
2023-09-04T08:37:02.466Z,94.60
2023-09-04T08:40:00.353Z,94.50
2023-09-04T08:42:59.458Z,94.30
2023-09-04T08:45:58.422Z,93.60
2023-09-04T08:48:58.160Z,94.80
2023-09-04T08:51:57.818Z,93.70
2023-09-04T08:54:56.475Z,94.60
2023-09-04T08:57:55.798Z,95.20
2023-09-04T09:00:54.502Z,94.70
2023-09-04T09:03:52.812Z,95.30
2023-09-04T09:06:53.292Z,96.60
2023-09-04T09:09:53.822Z,97.70
2023-09-04T09:12:51.727Z,99.50
2023-09-04T09:15:49.920Z,99.90
2023-09-04T09:18:49.836Z,99.90
2023-09-04T09:21:47.731Z,99.80
2023-09-04T09:25:01.788Z,99.70
2023-09-04T09:28:02.178Z,99.60
2023-09-04T09:31:00.716Z,98.70
2023-09-04T09:33:59.501Z,98.80
2023-09-04T09:36:59.920Z,99.90
2023-09-04T09:39:57.999Z,99.90
2023-09-04T09:42:55.962Z,99.90
2023-09-04T09:45:53.920Z,99.90
2023-09-04T09:48:52.238Z,99.90
2023-09-04T09:51:54.841Z,99.90
2023-09-04T09:54:52.618Z,99.90
2023-09-04T09:57:52.952Z,99.90
2023-09-04T10:00:50.937Z,99.90
2023-09-04T10:03:49.380Z,99.90
2023-09-04T10:06:48.799Z,99.90
2023-09-04T10:09:48.422Z,99.90
2023-09-04T10:13:01.635Z,99.90
2023-09-04T10:16:03.070Z,99.90
2023-09-04T10:19:04.280Z,99.90
2023-09-04T10:22:05.883Z,99.90
2023-09-04T10:25:28.368Z,99.90
2023-09-04T10:28:43.870Z,99.90
2023-09-04T10:31:43.103Z,99.90
2023-09-04T10:34:42.160Z,99.90
2023-09-04T10:37:40.090Z,99.90
2023-09-04T10:40:39.117Z,99.90
2023-09-04T10:43:41.184Z,99.90
2023-09-04T10:46:41.997Z,99.90
2023-09-04T10:49:39.913Z,99.90
2023-09-04T10:52:45.214Z,99.00
2023-09-04T10:55:43.000Z,99.90
2023-09-04T10:59:04.126Z,98.90
2023-09-04T11:02:30.776Z,98.50
2023-09-04T11:05:29.012Z,97.90
2023-09-04T11:08:28.858Z,97.10
2023-09-04T11:11:28.052Z,95.90
2023-09-04T11:14:34.471Z,96.60
2023-09-04T11:17:34.703Z,95.10
2023-09-04T11:20:46.788Z,94.40
2023-09-04T11:23:45.155Z,96.00
2023-09-04T11:26:43.016Z,96.60
2023-09-04T11:29:41.094Z,97.70
2023-09-04T11:32:40.447Z,97.60
2023-09-04T11:35:38.887Z,95.70
2023-09-04T11:38:38.310Z,93.40
2023-09-04T11:41:36.339Z,97.60
2023-09-04T11:44:34.161Z,95.70
2023-09-04T11:47:32.473Z,94.20
2023-09-04T11:50:30.454Z,94.30
2023-09-04T11:53:28.718Z,92.50
2023-09-04T11:56:26.882Z,93.80
2023-09-04T11:59:24.854Z,94.80
2023-09-04T12:02:22.891Z,93.20
2023-09-04T12:05:22.043Z,93.50
2023-09-04T12:08:20.815Z,96.50
2023-09-04T12:11:19.347Z,93.30
2023-09-04T12:14:17.870Z,94.30
2023-09-04T12:17:16.024Z,96.00
2023-09-04T12:20:17.792Z,95.00
2023-09-04T12:23:16.061Z,94.00
2023-09-04T12:26:15.193Z,94.30
2023-09-04T12:29:13.973Z,95.20
2023-09-04T12:32:14.615Z,92.60
2023-09-04T12:35:12.543Z,94.00
2023-09-04T12:38:12.032Z,90.10
2023-09-04T12:41:10.739Z,88.80
2023-09-04T12:44:08.576Z,90.20
2023-09-04T12:47:06.509Z,92.70
2023-09-04T12:50:04.800Z,91.10
2023-09-04T12:53:02.758Z,92.40
2023-09-04T12:56:00.641Z,83.90
2023-09-04T12:58:58.586Z,86.50
2023-09-04T13:01:56.557Z,86.40
2023-09-04T13:04:54.571Z,91.30
2023-09-04T13:07:52.422Z,82.90
2023-09-04T13:10:50.388Z,90.00
2023-09-04T13:13:48.376Z,90.30
2023-09-04T13:16:46.468Z,85.00
2023-09-04T13:19:44.363Z,89.50
2023-09-04T13:22:43.702Z,88.90
2023-09-04T13:25:41.476Z,88.10
2023-09-04T13:28:39.394Z,89.00
2023-09-04T13:31:37.187Z,89.80
2023-09-04T13:34:35.180Z,90.20
2023-09-04T13:37:33.383Z,91.00
2023-09-04T13:40:33.063Z,91.70
2023-09-04T13:43:30.837Z,92.10
2023-09-04T13:46:28.747Z,93.20
2023-09-04T13:49:26.661Z,92.70
2023-09-04T13:52:25.818Z,93.00
2023-09-04T13:55:23.662Z,93.50
2023-09-04T13:58:21.660Z,93.90
2023-09-04T14:01:19.656Z,94.60
2023-09-04T14:04:18.154Z,94.90
2023-09-04T14:07:16.276Z,95.10
2023-09-04T14:10:14.577Z,95.50
2023-09-04T14:13:12.438Z,96.40
2023-09-04T14:16:10.383Z,96.40
2023-09-04T14:19:08.285Z,96.40
2023-09-04T14:22:06.265Z,96.60
2023-09-04T14:25:04.232Z,96.20
2023-09-04T14:28:02.234Z,96.10
2023-09-04T14:31:00.092Z,96.30
2023-09-04T14:33:58.218Z,96.30
2023-09-04T14:37:16.802Z,96.60
2023-09-04T14:40:14.719Z,97.10
2023-09-04T14:43:13.704Z,97.50
2023-09-04T14:46:11.916Z,98.10
2023-09-04T14:49:12.029Z,98.40
2023-09-04T14:52:09.911Z,98.30
2023-09-04T14:55:08.257Z,98.30
2023-09-04T14:58:06.679Z,98.60
2023-09-04T15:01:15.243Z,97.90
2023-09-04T15:04:14.754Z,97.80
2023-09-04T15:07:12.606Z,98.30
2023-09-04T15:10:10.953Z,98.30
2023-09-04T15:13:08.812Z,97.80
2023-09-04T15:16:07.747Z,98.30
2023-09-04T15:19:05.708Z,97.00
2023-09-04T15:22:04.467Z,97.70
2023-09-04T15:25:02.389Z,97.70
2023-09-04T15:28:01.073Z,98.10
2023-09-04T15:30:59.649Z,98.40
2023-09-04T15:33:58.080Z,98.60
2023-09-04T15:36:55.923Z,98.80
2023-09-04T15:39:54.784Z,97.50
2023-09-04T15:42:52.587Z,96.20
2023-09-04T15:45:53.469Z,95.00
2023-09-04T15:48:51.394Z,96.90
2023-09-04T15:51:49.278Z,97.10
2023-09-04T15:54:47.037Z,97.20
2023-09-04T15:57:44.976Z,97.00
2023-09-04T16:00:42.820Z,96.00
2023-09-04T16:03:40.842Z,97.50
2023-09-04T16:06:38.646Z,95.80
2023-09-04T16:09:37.228Z,95.90
2023-09-04T16:12:35.077Z,97.80
2023-09-04T16:15:32.972Z,95.60
2023-09-04T16:18:31.111Z,94.70
2023-09-04T16:21:30.600Z,95.50
2023-09-04T16:24:28.419Z,95.40
2023-09-04T16:27:27.119Z,95.20
2023-09-04T16:30:24.943Z,94.90
2023-09-04T16:33:23.053Z,96.60
2023-09-04T16:36:20.962Z,95.50
2023-09-04T16:39:19.200Z,96.60
2023-09-04T16:42:18.767Z,95.80
2023-09-04T16:45:16.784Z,95.10
2023-09-04T16:48:14.793Z,93.90
2023-09-04T16:51:12.714Z,93.80
2023-09-04T16:54:10.494Z,96.50
2023-09-04T16:57:08.414Z,92.70
2023-09-04T17:00:09.948Z,93.00
2023-09-04T17:03:07.951Z,94.00
2023-09-04T17:06:06.294Z,94.10
2023-09-04T17:09:05.291Z,93.90
2023-09-04T17:12:03.077Z,92.60
2023-09-04T17:15:00.976Z,92.80
2023-09-04T17:18:00.891Z,95.10
2023-09-04T17:20:58.962Z,92.00
2023-09-04T17:23:57.045Z,91.50
2023-09-04T17:26:55.006Z,94.10
2023-09-04T17:29:54.135Z,92.40
2023-09-04T17:32:55.407Z,92.10
2023-09-04T17:35:53.219Z,93.40
2023-09-04T17:38:51.122Z,91.90
2023-09-04T17:41:49.069Z,91.40
2023-09-04T17:44:47.039Z,91.70
2023-09-04T17:47:44.945Z,91.00
2023-09-04T17:50:44.259Z,92.60
2023-09-04T17:53:42.108Z,93.10
2023-09-04T17:56:40.049Z,90.00
2023-09-04T17:59:38.254Z,90.80
2023-09-04T18:02:36.281Z,91.50
2023-09-04T18:05:34.210Z,89.80
2023-09-04T18:08:32.191Z,92.80
2023-09-04T18:11:30.107Z,87.40
2023-09-04T18:14:30.248Z,87.10
2023-09-04T18:17:29.108Z,90.40
2023-09-04T18:20:27.137Z,89.40
2023-09-04T18:23:25.034Z,90.60
2023-09-04T18:26:23.053Z,91.80
2023-09-04T18:29:20.878Z,90.50
2023-09-04T18:32:18.877Z,91.40
2023-09-04T18:35:16.764Z,90.40
2023-09-04T18:38:15.175Z,90.10
2023-09-04T18:41:14.798Z,89.00
2023-09-04T18:44:12.733Z,90.20
2023-09-04T18:47:13.137Z,90.10
2023-09-04T18:50:11.487Z,88.30
2023-09-04T18:53:09.256Z,90.00
2023-09-04T18:56:07.182Z,91.60
2023-09-04T18:59:05.025Z,91.10
2023-09-04T19:02:03.242Z,89.80
2023-09-04T19:05:03.803Z,86.20
2023-09-04T19:08:01.825Z,85.60
2023-09-04T19:11:02.714Z,88.90
2023-09-04T19:14:00.671Z,90.50
2023-09-04T19:16:58.531Z,85.60
2023-09-04T19:19:56.470Z,86.20
2023-09-04T19:22:54.269Z,91.30
2023-09-04T19:25:52.257Z,86.10
2023-09-04T19:28:51.485Z,85.60
2023-09-04T19:31:50.865Z,87.90
2023-09-04T19:34:48.721Z,83.80
2023-09-04T19:37:46.689Z,86.20
2023-09-04T19:40:44.578Z,85.40
2023-09-04T19:43:42.553Z,84.80
2023-09-04T19:46:40.435Z,86.90
2023-09-04T19:49:38.594Z,87.30
2023-09-04T19:52:37.534Z,85.30
2023-09-04T19:55:35.713Z,86.50
2023-09-04T19:58:33.737Z,89.30
2023-09-04T20:01:31.801Z,88.30
2023-09-04T20:04:29.685Z,87.70
2023-09-04T20:07:29.536Z,89.10
2023-09-04T20:10:27.292Z,89.00
2023-09-04T20:13:27.041Z,88.70
2023-09-04T20:16:25.072Z,89.40
2023-09-04T20:19:23.044Z,90.30
2023-09-04T20:22:21.459Z,90.30
2023-09-04T20:25:19.443Z,88.70
2023-09-04T20:28:17.382Z,88.50
2023-09-04T20:31:17.114Z,87.50
2023-09-04T20:34:14.927Z,91.00
2023-09-04T20:37:15.240Z,88.50
2023-09-04T20:40:13.472Z,88.10
2023-09-04T20:43:11.696Z,88.10
2023-09-04T20:46:09.495Z,88.20
2023-09-04T20:49:07.406Z,89.80
2023-09-04T20:52:05.517Z,87.70
2023-09-04T20:55:03.618Z,87.50
2023-09-04T20:58:01.847Z,87.50
2023-09-04T21:00:59.799Z,88.60
2023-09-04T21:04:00.148Z,88.80
2023-09-04T21:06:58.296Z,89.20
2023-09-04T21:09:56.064Z,89.60
2023-09-04T21:13:09.305Z,88.70
2023-09-04T21:16:22.537Z,87.70
2023-09-04T21:19:35.893Z,88.40
2023-09-04T21:22:49.035Z,88.40
2023-09-04T21:26:02.147Z,90.20
2023-09-04T21:29:15.355Z,90.40
2023-09-04T21:32:28.486Z,88.20
2023-09-04T21:35:41.688Z,90.20
2023-09-04T21:38:55.086Z,87.60
2023-09-04T21:42:08.197Z,90.20
2023-09-04T21:45:22.190Z,87.10
2023-09-04T21:48:35.670Z,88.60
2023-09-04T21:51:48.966Z,88.90
2023-09-04T21:55:02.699Z,88.90
2023-09-04T21:58:16.071Z,85.60
2023-09-04T22:01:29.325Z,87.10
2023-09-04T22:04:42.638Z,84.90
2023-09-04T22:07:56.080Z,86.70
2023-09-04T22:11:09.426Z,88.60
2023-09-04T22:14:22.613Z,86.00
2023-09-04T22:17:36.063Z,87.60
2023-09-04T22:20:49.393Z,87.10
2023-09-04T22:24:02.777Z,86.90
2023-09-04T22:27:15.957Z,89.60
2023-09-04T22:30:30.051Z,87.30
2023-09-04T22:33:43.257Z,87.30
2023-09-04T22:36:56.696Z,86.50
2023-09-04T22:40:09.849Z,87.00
2023-09-04T22:43:23.529Z,87.40
2023-09-04T22:46:36.923Z,86.50
2023-09-04T22:49:50.338Z,85.60
2023-09-04T22:53:07.111Z,87.40
2023-09-04T22:56:20.995Z,87.60
2023-09-04T22:59:34.134Z,88.10
2023-09-04T23:02:47.545Z,89.10
2023-09-04T23:06:00.986Z,88.50
2023-09-04T23:09:14.328Z,88.70
2023-09-04T23:12:27.490Z,88.70
2023-09-04T23:15:40.906Z,89.60
2023-09-04T23:18:54.071Z,91.60
2023-09-04T23:21:52.032Z,90.30
2023-09-04T23:24:52.205Z,89.80
2023-09-04T23:27:52.469Z,90.70
2023-09-04T23:31:01.802Z,90.20
2023-09-04T23:34:01.615Z,89.40
2023-09-04T23:37:15.629Z,90.00
2023-09-04T23:40:29.030Z,90.10
2023-09-04T23:43:42.452Z,89.40
2023-09-04T23:46:40.411Z,90.20
2023-09-04T23:49:38.362Z,91.20
2023-09-04T23:52:37.025Z,91.70
2023-09-04T23:55:38.127Z,90.50
2023-09-04T23:58:36.481Z,91.80
